createdAt,value
2016-09-16T11:05:47.549Z,33
2016-09-16T11:06:04.167Z,33
2016-09-16T11:06:20.714Z,33
2016-09-16T11:06:37.210Z,33
2016-09-16T11:06:53.987Z,33
2016-09-16T11:07:10.633Z,33
2016-09-16T11:07:27.452Z,33
2016-09-16T11:07:44.595Z,33
2016-09-16T11:08:01.579Z,33
2016-09-16T11:08:24.104Z,33
2016-09-16T11:09:38.338Z,33
2016-09-16T11:10:01.605Z,33
2016-09-16T11:10:19.218Z,33
2016-09-16T11:10:37.796Z,33
2016-09-16T11:10:54.417Z,33
2016-09-16T11:11:10.614Z,33
2016-09-16T11:11:27.806Z,33
2016-09-16T11:12:33.106Z,33
2016-09-16T11:12:50.911Z,33
2016-09-16T11:13:07.229Z,33
2016-09-16T11:13:23.809Z,33
2016-09-16T11:13:47.619Z,33
2016-09-16T11:18:54.023Z,33
2016-09-16T11:19:14.495Z,33
2016-09-16T11:20:29.220Z,33
2016-09-16T11:20:47.002Z,33
2016-09-16T11:21:04.188Z,33
2016-09-16T11:21:21.388Z,33
2016-09-16T11:21:39.480Z,33
2016-09-16T11:22:01.807Z,33
2016-09-16T11:23:45.799Z,33
2016-09-16T11:24:02.362Z,33
2016-09-16T11:24:19.504Z,33
2016-09-16T11:24:36.518Z,33
2016-09-16T11:24:54.958Z,33
2016-09-16T11:25:12.242Z,33
2016-09-16T11:25:30.018Z,33
2016-09-16T11:25:46.398Z,31
2016-09-16T11:26:03.053Z,32
2016-09-16T11:26:19.708Z,31
2016-09-16T11:26:46.230Z,31
2016-09-16T11:27:03.217Z,31
2016-09-16T11:28:06.398Z,30
2016-09-16T11:28:23.629Z,30
2016-09-16T11:29:05.105Z,30
2016-09-16T11:29:28.424Z,30
2016-09-16T11:30:29.609Z,30
2016-09-16T11:30:47.922Z,31
2016-09-16T11:31:04.800Z,31
2016-09-16T11:31:24.009Z,31
2016-09-16T11:31:42.430Z,31
2016-09-16T11:31:59.239Z,31
2016-09-16T11:32:24.809Z,31
2016-09-16T11:32:41.180Z,31
2016-09-16T11:32:58.500Z,31
2016-09-16T11:33:16.219Z,31
2016-09-16T11:33:32.175Z,31
2016-09-16T11:33:48.645Z,31
2016-09-16T11:34:05.676Z,31
2016-09-16T11:34:23.494Z,31
2016-09-16T11:34:40.313Z,31
2016-09-16T11:34:57.826Z,31
2016-09-16T11:35:15.087Z,31
2016-09-16T11:35:34.823Z,31
2016-09-16T11:35:51.427Z,31
2016-09-16T11:36:09.834Z,31
2016-09-16T11:36:32.708Z,32
2016-09-16T11:37:47.508Z,32
2016-09-16T11:38:10.195Z,32
2016-09-16T11:38:26.497Z,32
2016-09-16T11:38:45.022Z,32
2016-09-16T11:39:01.632Z,32
2016-09-16T11:39:20.301Z,32
2016-09-16T11:39:37.766Z,32
2016-09-16T11:39:54.404Z,32
2016-09-16T11:40:34.669Z,32
2016-09-16T11:50:12.547Z,33
2016-09-16T11:51:15.889Z,33
2016-09-16T11:51:33.483Z,33
2016-09-16T11:51:50.186Z,33
2016-09-16T11:52:28.452Z,33
2016-09-16T11:52:45.460Z,33
2016-09-16T11:53:02.082Z,33
2016-09-16T11:53:19.106Z,33
2016-09-16T11:53:35.911Z,33
2016-09-16T11:53:52.829Z,33
2016-09-16T11:54:09.649Z,33
2016-09-16T11:54:26.555Z,33
2016-09-16T11:54:43.530Z,32
2016-09-16T11:55:00.166Z,32
2016-09-16T11:55:17.624Z,32
2016-09-16T11:55:33.867Z,32
2016-09-16T11:55:51.185Z,32
2016-09-16T11:56:07.799Z,32
2016-09-16T11:56:24.746Z,32
2016-09-16T11:56:48.528Z,32
2016-09-16T11:57:05.472Z,32
2016-09-16T11:57:41.703Z,32
2016-09-16T11:57:58.842Z,32
2016-09-16T11:59:14.795Z,32
2016-09-16T12:01:37.213Z,32
2016-09-16T12:06:48.106Z,32
2016-09-16T12:07:04.494Z,31
2016-09-16T12:07:20.864Z,32
2016-09-16T12:07:37.807Z,32
2016-09-16T12:07:54.244Z,32
2016-09-16T12:08:11.108Z,32
2016-09-16T12:08:27.624Z,32
2016-09-16T12:08:44.130Z,32
2016-09-16T12:09:20.026Z,33
2016-09-16T12:09:36.930Z,33
2016-09-16T12:09:53.288Z,33
2016-09-16T12:10:09.308Z,33
2016-09-16T12:10:25.953Z,33
2016-09-16T12:10:42.322Z,33
2016-09-16T12:10:58.470Z,33
2016-09-16T12:11:15.498Z,33
2016-09-16T12:11:40.704Z,33
2016-09-16T12:11:57.312Z,33
2016-09-16T12:12:14.568Z,33
2016-09-16T12:12:31.109Z,33
2016-09-16T12:12:47.881Z,33
2016-09-16T12:13:04.639Z,33
2016-09-16T12:13:21.510Z,33
2016-09-16T12:13:39.531Z,33
2016-09-16T12:13:56.358Z,33
2016-09-16T12:14:19.384Z,33
2016-09-16T12:14:35.780Z,33
2016-09-16T12:14:52.412Z,33
2016-09-16T12:15:09.381Z,33
2016-09-16T12:15:31.585Z,33
2016-09-16T12:16:09.414Z,33
2016-09-16T12:16:26.480Z,33
2016-09-16T12:16:52.710Z,33
2016-09-16T12:17:53.627Z,33
2016-09-16T12:18:55.891Z,33
2016-09-16T12:20:01.789Z,33
2016-09-16T12:20:19.064Z,33
2016-09-16T12:20:36.007Z,33
2016-09-16T12:21:40.133Z,33
2016-09-16T12:21:56.688Z,33
2016-09-16T12:22:12.815Z,33
2016-09-16T12:22:29.386Z,33
2016-09-16T12:22:46.473Z,33
2016-09-16T12:23:03.865Z,33
2016-09-16T12:23:20.246Z,33
2016-09-16T12:23:36.976Z,33
2016-09-16T12:23:53.575Z,33
2016-09-16T12:24:10.993Z,33
2016-09-16T12:24:27.399Z,33
2016-09-16T12:24:44.172Z,33
2016-09-16T12:25:00.913Z,33
2016-09-16T12:25:17.537Z,33
2016-09-16T12:25:34.900Z,33
2016-09-16T12:25:52.203Z,33
2016-09-16T12:26:08.085Z,33
2016-09-16T12:26:24.831Z,33
2016-09-16T12:26:41.463Z,33
2016-09-16T12:26:57.597Z,33
2016-09-16T12:27:14.237Z,33
2016-09-16T12:27:32.635Z,34
2016-09-16T12:27:49.328Z,33
2016-09-16T12:28:06.345Z,34
2016-09-16T12:28:32.365Z,34
2016-09-16T12:28:48.731Z,34
2016-09-16T12:29:05.105Z,33
2016-09-16T12:29:21.023Z,33
2016-09-16T12:29:37.384Z,33
2016-09-16T12:29:53.970Z,33
2016-09-16T12:30:10.705Z,33
2016-09-16T12:30:27.323Z,33
2016-09-16T12:30:44.057Z,33
2016-09-16T12:30:59.962Z,33
2016-09-16T12:31:16.577Z,33
2016-09-16T12:31:33.177Z,33
2016-09-16T12:31:49.704Z,33
2016-09-16T12:32:06.383Z,33
2016-09-16T12:32:23.053Z,33
2016-09-16T12:32:39.703Z,33
2016-09-16T12:32:56.340Z,33
2016-09-16T12:33:12.854Z,33
2016-09-16T12:33:29.461Z,33
2016-09-16T12:33:45.841Z,33
2016-09-16T12:34:03.408Z,33
2016-09-16T12:34:39.304Z,33
2016-09-16T12:34:56.093Z,34
2016-09-16T12:50:47.270Z,34
2016-09-16T12:52:01.480Z,34
2016-09-16T12:53:08.087Z,34
2016-09-16T12:53:24.916Z,34
2016-09-16T12:53:41.508Z,34
2016-09-16T12:54:44.121Z,34
2016-09-16T12:55:01.271Z,34
2016-09-16T12:56:15.697Z,34
2016-09-16T12:56:33.521Z,34
2016-09-16T12:56:50.380Z,34
2016-09-16T12:57:08.608Z,34
2016-09-16T12:57:25.462Z,34
2016-09-16T12:57:42.707Z,34
2016-09-16T12:58:05.973Z,34
2016-09-16T12:58:23.684Z,34
2016-09-16T12:58:40.154Z,34
2016-09-16T12:58:57.505Z,34
2016-09-16T12:59:14.522Z,34
2016-09-16T12:59:32.852Z,34
2016-09-16T12:59:49.016Z,34
2016-09-16T13:00:06.718Z,34
2016-09-16T13:00:24.594Z,34
2016-09-16T13:00:40.873Z,34
2016-09-16T13:00:59.659Z,34
2016-09-16T13:01:16.482Z,34
2016-09-16T13:01:52.649Z,34
2016-09-16T13:04:18.349Z,34
2016-09-16T13:04:35.039Z,34
2016-09-16T13:04:52.714Z,34
2016-09-16T13:05:09.178Z,34
2016-09-16T13:05:31.523Z,34
2016-09-16T13:05:48.130Z,34
2016-09-16T13:06:05.750Z,34
2016-09-16T13:06:23.064Z,34
2016-09-16T13:06:39.197Z,34
2016-09-16T13:06:57.435Z,34
2016-09-16T13:07:14.006Z,34
2016-09-16T13:07:31.045Z,34
2016-09-16T13:07:48.084Z,35
2016-09-16T13:08:04.684Z,35
2016-09-16T13:08:21.607Z,35
2016-09-16T13:08:38.635Z,35
2016-09-16T13:09:05.133Z,35
2016-09-16T13:09:22.359Z,34
2016-09-16T13:09:39.508Z,35
2016-09-16T13:12:02.988Z,35
2016-09-16T13:12:45.885Z,34
2016-09-16T14:02:45.481Z,34
2016-09-16T14:03:01.996Z,35
2016-09-16T14:03:18.137Z,35
2016-09-16T14:03:34.516Z,35
2016-09-16T14:03:50.881Z,35
2016-09-16T14:04:07.468Z,35
2016-09-16T14:04:23.828Z,35
2016-09-16T14:04:40.421Z,35
2016-09-16T14:04:57.149Z,35
2016-09-16T14:05:13.501Z,35
2016-09-16T14:05:29.866Z,35
2016-09-16T14:05:45.762Z,35
2016-09-16T14:06:02.355Z,35
2016-09-16T14:06:18.963Z,33
2016-09-16T14:06:35.090Z,34
2016-09-16T14:06:51.474Z,34
2016-09-16T14:07:08.069Z,34
2016-09-16T14:07:24.667Z,34
2016-09-16T14:07:41.032Z,34
2016-09-16T14:07:57.618Z,34
2016-09-16T14:08:13.978Z,34
2016-09-16T14:08:30.572Z,34
2016-09-16T14:08:46.713Z,34
2016-09-16T14:09:03.101Z,34
2016-09-16T14:09:19.602Z,35
2016-09-16T14:09:36.103Z,35
2016-09-16T14:09:52.459Z,35
2016-09-16T14:10:08.817Z,35
2016-09-16T14:10:25.540Z,35
2016-09-16T14:10:42.127Z,35
2016-09-16T14:10:58.491Z,35
2016-09-16T14:11:15.223Z,35
2016-09-16T14:11:31.727Z,34
2016-09-16T14:11:48.328Z,35
2016-09-16T14:12:05.053Z,35
2016-09-16T14:12:21.638Z,35
2016-09-16T14:12:38.235Z,35
2016-09-16T14:12:54.830Z,35
2016-09-16T14:13:11.205Z,35
2016-09-16T14:13:27.801Z,35
2016-09-16T14:13:44.297Z,35
2016-09-16T14:14:00.900Z,35
2016-09-16T14:14:17.177Z,35
2016-09-16T14:14:33.678Z,35
2016-09-16T14:14:49.822Z,35
2016-09-16T14:15:06.319Z,35
2016-09-16T14:15:22.468Z,35
2016-09-16T14:15:38.829Z,35
2016-09-16T14:15:55.426Z,35
2016-09-16T14:16:12.017Z,35
2016-09-16T14:16:28.605Z,35
2016-09-16T14:16:45.347Z,35
2016-09-16T14:17:01.953Z,35
2016-09-16T14:17:18.321Z,35
2016-09-16T14:17:34.691Z,35
2016-09-16T14:17:51.064Z,35
2016-09-16T14:18:07.655Z,35
2016-09-16T14:18:24.160Z,35
2016-09-16T14:18:40.767Z,35
2016-09-16T14:18:57.135Z,35
2016-09-16T14:19:13.530Z,35
2016-09-16T14:19:30.114Z,35
2016-09-16T14:19:46.481Z,35
2016-09-16T14:20:02.620Z,35
2016-09-16T14:20:18.768Z,35
2016-09-16T14:20:34.918Z,35
2016-09-16T14:20:51.643Z,35
2016-09-16T14:21:08.144Z,35
2016-09-16T14:21:24.538Z,35
2016-09-16T14:21:41.102Z,35
2016-09-16T14:21:57.595Z,34
2016-09-16T14:22:13.882Z,34
2016-09-16T14:22:30.471Z,34
2016-09-16T14:22:47.080Z,34
2016-09-16T14:23:03.464Z,34
2016-09-16T14:23:20.056Z,34
2016-09-16T14:23:36.428Z,34
2016-09-16T14:23:53.028Z,34
2016-09-16T14:24:09.615Z,34
2016-09-16T14:24:26.215Z,34
2016-09-16T14:24:42.576Z,34
2016-09-16T14:24:58.959Z,34
2016-09-16T14:25:15.560Z,34
2016-09-16T14:25:31.926Z,34
2016-09-16T14:25:48.051Z,34
2016-09-16T14:26:04.776Z,34
2016-09-16T14:26:21.373Z,34
2016-09-16T14:26:37.871Z,34
2016-09-16T14:26:54.465Z,34
2016-09-16T14:27:11.052Z,34
2016-09-16T14:27:27.428Z,34
2016-09-16T14:27:44.163Z,34
2016-09-16T14:28:00.755Z,34
2016-09-16T14:28:17.354Z,34
2016-09-16T14:28:34.080Z,34
2016-09-16T14:28:50.225Z,34
2016-09-16T14:29:06.369Z,34
2016-09-16T14:29:22.657Z,34
2016-09-16T14:29:39.220Z,34
2016-09-16T14:29:55.817Z,34
2016-09-16T14:30:12.406Z,34
2016-09-16T14:30:28.672Z,34
2016-09-16T14:30:45.041Z,34
2016-09-16T14:31:01.395Z,34
2016-09-16T14:31:18.000Z,34
2016-09-16T14:31:34.603Z,34
2016-09-16T14:31:50.749Z,34
2016-09-16T14:32:07.343Z,34
2016-09-16T14:32:24.066Z,34
2016-09-16T14:32:40.664Z,34
2016-09-16T14:32:57.040Z,34
2016-09-16T14:33:13.636Z,34
2016-09-16T14:33:30.136Z,34
2016-09-16T14:33:46.740Z,34
2016-09-16T14:34:02.867Z,34
2016-09-16T14:34:19.481Z,35
2016-09-16T14:34:36.058Z,35
2016-09-16T14:34:52.193Z,35
2016-09-16T14:35:08.327Z,35
2016-09-16T14:35:24.923Z,35
2016-09-16T14:35:41.510Z,35
2016-09-16T14:35:58.111Z,35
2016-09-16T14:36:14.841Z,35
2016-09-16T14:36:31.207Z,35
2016-09-16T14:36:47.799Z,35
2016-09-16T14:37:04.538Z,35
2016-09-16T14:37:20.679Z,35
2016-09-16T14:37:37.415Z,35
2016-09-16T14:37:53.779Z,35
2016-09-16T14:38:10.370Z,35
2016-09-16T14:38:26.979Z,35
2016-09-16T14:38:43.565Z,35
2016-09-16T14:38:59.932Z,35
2016-09-16T14:39:16.521Z,35
2016-09-16T14:39:32.890Z,35
2016-09-16T14:39:49.257Z,35
2016-09-16T14:40:05.856Z,35
2016-09-16T14:40:22.125Z,35
2016-09-16T14:40:38.714Z,35
2016-09-16T14:40:55.298Z,35
2016-09-16T14:41:11.895Z,35
2016-09-16T14:41:28.265Z,35
2016-09-16T14:41:44.626Z,35
2016-09-16T14:42:01.220Z,35
2016-09-16T14:42:17.809Z,35
2016-09-16T14:42:34.169Z,35
2016-09-16T14:42:50.766Z,35
2016-09-16T14:43:07.362Z,35
2016-09-16T14:43:23.963Z,35
2016-09-16T14:43:40.345Z,35
2016-09-16T14:43:56.942Z,35
2016-09-16T14:44:13.305Z,35
2016-09-16T14:44:30.026Z,35
2016-09-16T14:44:46.613Z,35
2016-09-16T14:45:03.216Z,35
2016-09-16T14:45:19.805Z,35
2016-09-16T14:45:36.538Z,35
2016-09-16T14:45:52.792Z,35
2016-09-16T14:46:09.379Z,35
2016-09-16T14:46:26.109Z,35
2016-09-16T14:46:42.702Z,35
2016-09-16T14:46:59.295Z,35
2016-09-16T14:47:15.651Z,35
2016-09-16T14:47:32.241Z,35
2016-09-16T14:47:48.828Z,35
2016-09-16T14:48:05.426Z,35
2016-09-16T14:48:22.149Z,35
2016-09-16T14:48:38.662Z,35
2016-09-16T14:48:54.574Z,35
2016-09-16T14:49:11.176Z,35
2016-09-16T14:49:27.781Z,35
2016-09-16T14:49:44.156Z,35
2016-09-16T14:50:00.525Z,35
2016-09-16T14:50:17.126Z,35
2016-09-16T14:50:33.506Z,35
2016-09-16T14:50:50.091Z,35
2016-09-16T14:51:06.458Z,35
2016-09-16T14:51:22.600Z,35
2016-09-16T14:51:39.202Z,35
2016-09-16T14:51:55.815Z,35
2016-09-16T14:52:12.412Z,35
2016-09-16T14:52:28.796Z,35
2016-09-16T14:52:45.174Z,35
2016-09-16T14:53:01.755Z,35
2016-09-16T14:53:18.117Z,35
2016-09-16T14:53:34.740Z,35
2016-09-16T14:53:51.108Z,35
2016-09-16T14:54:07.471Z,35
2016-09-16T14:54:24.221Z,35
2016-09-16T14:54:40.592Z,35
2016-09-16T14:54:56.866Z,35
2016-09-16T14:55:13.232Z,35
2016-09-16T14:55:29.836Z,35
2016-09-16T14:55:46.203Z,35
2016-09-16T14:56:02.789Z,35
2016-09-16T14:56:19.386Z,35
2016-09-16T14:56:35.899Z,35
2016-09-16T14:56:52.495Z,35
2016-09-16T14:57:08.653Z,35
2016-09-16T14:57:25.246Z,35
2016-09-16T14:57:41.840Z,35
2016-09-16T14:57:58.456Z,35
2016-09-16T14:58:14.587Z,35
2016-09-16T14:58:30.966Z,35
2016-09-16T14:58:47.092Z,35
2016-09-16T14:59:02.999Z,35
2016-09-16T14:59:19.728Z,35
2016-09-16T14:59:36.338Z,35
2016-09-16T14:59:52.715Z,35
2016-09-16T15:00:08.848Z,35
2016-09-16T15:00:25.436Z,35
2016-09-16T15:00:42.023Z,35
2016-09-16T15:00:58.616Z,35
2016-09-16T15:01:14.987Z,35
2016-09-16T15:01:31.124Z,35
2016-09-16T15:01:47.497Z,35
2016-09-16T15:02:04.091Z,35
2016-09-16T15:02:20.240Z,35
2016-09-16T15:02:36.851Z,35
2016-09-16T15:02:53.445Z,35
2016-09-16T15:03:10.049Z,35
2016-09-16T15:03:26.414Z,35
2016-09-16T15:03:43.002Z,35
2016-09-16T15:03:59.385Z,35
2016-09-16T15:04:15.985Z,35
2016-09-16T15:04:32.574Z,35
2016-09-16T15:04:48.940Z,35
2016-09-16T15:05:04.844Z,35
2016-09-16T15:05:21.433Z,35
2016-09-16T15:05:37.807Z,35
2016-09-16T15:05:54.166Z,35
2016-09-16T15:06:10.762Z,35
2016-09-16T15:06:27.349Z,35
2016-09-16T15:06:43.740Z,35
2016-09-16T15:07:00.244Z,35
2016-09-16T15:07:16.621Z,35
2016-09-16T15:07:32.993Z,35
2016-09-16T15:07:48.906Z,35
2016-09-16T15:08:05.505Z,35
2016-09-16T15:08:21.884Z,35
2016-09-16T15:08:38.482Z,35
2016-09-16T15:08:54.620Z,35
2016-09-16T15:09:10.991Z,35
2016-09-16T15:09:27.583Z,35
2016-09-16T15:09:43.954Z,35
2016-09-16T15:10:00.322Z,35
2016-09-16T15:10:16.923Z,35
2016-09-16T15:10:33.419Z,35
2016-09-16T15:10:50.018Z,35
2016-09-16T15:11:06.634Z,35
2016-09-16T15:11:22.910Z,35
2016-09-16T15:11:39.505Z,35
2016-09-16T15:11:55.999Z,35
2016-09-16T15:12:12.363Z,35
2016-09-16T15:12:28.876Z,35
2016-09-16T15:12:45.024Z,35
2016-09-16T15:13:01.623Z,35
2016-09-16T15:13:17.982Z,35
2016-09-16T15:13:33.894Z,35
2016-09-16T15:13:50.499Z,35
2016-09-16T15:14:06.622Z,35
2016-09-16T15:14:23.207Z,35
2016-09-16T15:14:39.570Z,35
2016-09-16T15:14:55.710Z,35
2016-09-16T15:15:12.299Z,35
2016-09-16T15:15:28.568Z,35
2016-09-16T15:15:44.927Z,35
2016-09-16T15:16:01.297Z,35
2016-09-16T15:16:17.672Z,35
2016-09-16T15:16:34.045Z,35
2016-09-16T15:16:50.195Z,35
2016-09-16T15:17:06.559Z,35
2016-09-16T15:17:23.283Z,35
2016-09-16T15:17:39.654Z,35
2016-09-16T15:17:56.399Z,35
2016-09-16T15:18:12.308Z,35
2016-09-16T15:18:28.675Z,35
2016-09-16T15:18:45.276Z,35
2016-09-16T15:19:01.542Z,35
2016-09-16T15:19:17.913Z,35
2016-09-16T15:19:34.499Z,35
2016-09-16T15:19:50.737Z,35
2016-09-16T15:20:07.106Z,35
2016-09-16T15:20:23.379Z,35
2016-09-16T15:20:39.526Z,35
2016-09-16T15:20:56.038Z,35
2016-09-16T15:21:12.759Z,35
2016-09-16T15:21:29.120Z,35
2016-09-16T15:21:45.717Z,35
2016-09-16T15:22:01.865Z,35
2016-09-16T15:22:18.231Z,35
2016-09-16T15:22:34.698Z,35
2016-09-16T15:22:51.658Z,35
2016-09-16T15:23:08.028Z,35
2016-09-16T15:23:24.398Z,35
2016-09-16T15:23:40.997Z,35
2016-09-16T15:23:57.430Z,35
2016-09-16T15:24:13.961Z,35
2016-09-16T15:24:30.081Z,35
2016-09-16T15:24:46.644Z,35
2016-09-16T15:25:03.387Z,35
2016-09-16T15:25:19.995Z,35
2016-09-16T15:25:36.601Z,35
2016-09-16T15:25:52.746Z,35
2016-09-16T15:26:09.704Z,35
2016-09-16T15:26:26.197Z,35
2016-09-16T15:26:42.793Z,35
2016-09-16T15:26:59.524Z,35
2016-09-16T15:27:16.126Z,35
2016-09-16T15:27:32.725Z,35
2016-09-16T15:27:49.462Z,35
2016-09-16T15:28:06.071Z,35
2016-09-16T15:28:22.442Z,35
2016-09-16T15:28:38.828Z,35
2016-09-16T15:28:55.420Z,35
2016-09-16T15:29:12.025Z,35
2016-09-16T15:29:28.749Z,35
2016-09-16T15:29:45.255Z,35
2016-09-16T15:30:01.855Z,35
2016-09-16T15:30:18.235Z,35
2016-09-16T15:30:34.383Z,35
2016-09-16T15:30:50.996Z,35
2016-09-16T15:31:07.607Z,35
2016-09-16T15:31:23.972Z,35
2016-09-16T15:31:40.570Z,35
2016-09-16T15:31:56.724Z,35
2016-09-16T15:32:13.102Z,35
2016-09-16T15:32:29.700Z,35
2016-09-16T15:32:46.315Z,35
2016-09-16T15:33:02.689Z,35
2016-09-16T15:33:19.302Z,35
2016-09-16T15:33:35.692Z,35
2016-09-16T15:33:52.076Z,35
2016-09-16T15:34:08.446Z,35
2016-09-16T15:34:25.231Z,35
2016-09-16T15:34:41.968Z,35
2016-09-16T15:34:58.355Z,35
2016-09-16T15:35:14.941Z,35
2016-09-16T15:35:31.315Z,35
2016-09-16T15:35:47.693Z,35
2016-09-16T15:36:04.077Z,35
2016-09-16T15:36:20.801Z,35
2016-09-16T15:36:37.391Z,35
2016-09-16T15:36:53.985Z,35
2016-09-16T15:37:10.712Z,35
2016-09-16T15:37:27.313Z,35
2016-09-16T15:37:43.907Z,35
2016-09-16T15:38:00.638Z,35
2016-09-16T15:38:17.017Z,35
2016-09-16T15:38:33.749Z,35
2016-09-16T15:38:50.350Z,35
2016-09-16T15:39:06.720Z,35
2016-09-16T15:39:23.323Z,35
2016-09-16T15:39:39.913Z,35
2016-09-16T15:39:56.419Z,35
2016-09-16T15:40:12.798Z,35
2016-09-16T15:40:29.160Z,35
2016-09-16T15:40:45.767Z,35
2016-09-16T15:41:02.142Z,35
2016-09-16T15:41:18.639Z,35
2016-09-16T15:41:35.246Z,35
2016-09-16T15:41:51.623Z,35
2016-09-16T15:42:08.239Z,35
2016-09-16T15:42:24.612Z,35
2016-09-16T15:42:40.984Z,35
2016-09-16T15:42:57.128Z,35
2016-09-16T15:43:13.508Z,35
2016-09-16T15:43:30.296Z,35
2016-09-16T15:43:46.425Z,35
2016-09-16T15:44:03.044Z,35
2016-09-16T15:44:19.648Z,35
2016-09-16T15:44:36.235Z,35
2016-09-16T15:44:52.621Z,35
2016-09-16T15:45:08.990Z,35
2016-09-16T15:45:25.362Z,35
2016-09-16T15:45:41.951Z,35
2016-09-16T15:45:58.561Z,35
2016-09-16T15:46:15.157Z,35
2016-09-16T15:46:31.757Z,35
2016-09-16T15:46:48.365Z,35
2016-09-16T15:47:04.954Z,35
2016-09-16T15:47:21.830Z,35
2016-09-16T15:47:38.181Z,35
2016-09-16T15:47:54.905Z,35
2016-09-16T15:48:11.506Z,35
2016-09-16T15:48:27.870Z,35
2016-09-16T15:48:44.473Z,35
2016-09-16T15:49:00.846Z,35
2016-09-16T15:49:17.439Z,35
2016-09-16T15:49:33.585Z,35
2016-09-16T15:49:49.974Z,35
2016-09-16T15:50:06.350Z,35
2016-09-16T15:50:22.943Z,35
2016-09-16T15:50:39.537Z,35
2016-09-16T15:50:56.140Z,35
2016-09-16T15:51:12.747Z,35
2016-09-16T15:51:29.350Z,35
2016-09-16T15:51:45.730Z,35
2016-09-16T15:52:02.106Z,35
2016-09-16T15:52:18.707Z,35
2016-09-16T15:52:35.309Z,35
2016-09-16T15:52:51.901Z,35
2016-09-16T15:53:08.262Z,35
2016-09-16T15:53:24.877Z,35
2016-09-16T15:53:41.265Z,35
2016-09-16T15:53:57.419Z,35
2016-09-16T15:54:13.786Z,35
2016-09-16T15:54:30.390Z,35
2016-09-16T15:54:46.752Z,35
2016-09-16T15:55:03.131Z,35
2016-09-16T15:55:19.729Z,35
2016-09-16T15:55:36.480Z,35
2016-09-16T15:55:53.079Z,35
2016-09-16T15:56:09.231Z,35
2016-09-16T15:56:25.144Z,35
2016-09-16T15:56:41.633Z,35
2016-09-16T15:56:58.226Z,35
2016-09-16T15:57:14.820Z,35
2016-09-16T15:57:31.417Z,35
2016-09-16T15:57:48.031Z,35
2016-09-16T15:58:04.644Z,35
2016-09-16T15:58:21.012Z,35
2016-09-16T15:58:37.152Z,35
2016-09-16T15:58:53.527Z,35
2016-09-16T15:59:10.126Z,35
2016-09-16T15:59:26.729Z,35
2016-09-16T15:59:43.328Z,35
2016-09-16T15:59:59.683Z,35
2016-09-16T16:00:16.280Z,35
2016-09-16T16:00:32.880Z,35
2016-09-16T16:00:49.483Z,35
2016-09-16T16:01:06.083Z,35
2016-09-16T16:01:22.950Z,35
2016-09-16T16:01:39.352Z,35
2016-09-16T16:01:55.949Z,35
2016-09-16T16:02:12.554Z,35
2016-09-16T16:02:28.926Z,35
2016-09-16T16:02:45.297Z,35
2016-09-16T16:03:01.579Z,35
2016-09-16T16:03:18.182Z,35
2016-09-16T16:03:34.901Z,35
2016-09-16T16:03:51.519Z,35
2016-09-16T16:04:08.126Z,35
2016-09-16T16:04:24.624Z,35
2016-09-16T16:04:41.363Z,35
2016-09-16T16:04:57.734Z,35
2016-09-16T16:05:13.892Z,35
2016-09-16T16:05:30.023Z,35
2016-09-16T16:05:46.392Z,35
2016-09-16T16:06:02.769Z,35
2016-09-16T16:06:19.366Z,35
2016-09-16T16:06:35.967Z,35
2016-09-16T16:06:52.563Z,35
2016-09-16T16:07:08.923Z,35
2016-09-16T16:07:25.530Z,35
2016-09-16T16:07:42.262Z,35
2016-09-16T16:07:58.411Z,35
2016-09-16T16:08:14.749Z,35
2016-09-16T16:08:31.126Z,35
2016-09-16T16:08:47.722Z,35
2016-09-16T16:09:04.095Z,35
2016-09-16T16:09:20.697Z,35
2016-09-16T16:09:37.308Z,35
2016-09-16T16:09:53.898Z,35
2016-09-16T16:10:10.494Z,35
2016-09-16T16:10:26.634Z,35
2016-09-16T16:10:42.994Z,35
2016-09-16T16:10:59.590Z,35
2016-09-16T16:11:16.324Z,35
2016-09-16T16:11:32.687Z,35
2016-09-16T16:11:49.056Z,35
2016-09-16T16:12:05.659Z,35
2016-09-16T16:12:22.263Z,35
2016-09-16T16:12:38.192Z,35
2016-09-16T16:12:54.322Z,35
2016-09-16T16:13:10.690Z,35
2016-09-16T16:13:26.839Z,35
2016-09-16T16:13:43.456Z,35
2016-09-16T16:14:00.055Z,35
2016-09-16T16:14:16.655Z,35
2016-09-16T16:14:33.055Z,36
2016-09-16T16:14:49.777Z,36
2016-09-16T16:15:06.152Z,36
2016-09-16T16:15:22.892Z,36
2016-09-16T16:15:39.486Z,37
2016-09-16T16:15:56.074Z,37
2016-09-16T16:16:12.459Z,37
2016-09-16T16:16:28.833Z,37
2016-09-16T16:16:45.323Z,37
2016-09-16T16:17:01.932Z,37
2016-09-16T16:17:18.290Z,37
2016-09-16T16:17:34.889Z,37
2016-09-16T16:17:51.506Z,37
2016-09-16T16:18:07.781Z,37
2016-09-16T16:18:24.560Z,37
2016-09-16T16:18:41.151Z,37
2016-09-16T16:18:57.282Z,37
2016-09-16T16:19:13.636Z,37
2016-09-16T16:19:30.014Z,37
2016-09-16T16:19:46.164Z,37
2016-09-16T16:20:02.432Z,36
2016-09-16T16:20:19.043Z,36
2016-09-16T16:20:35.186Z,36
2016-09-16T16:20:51.559Z,36
2016-09-16T16:21:08.162Z,36
2016-09-16T16:21:24.529Z,36
2016-09-16T16:21:40.891Z,36
2016-09-16T16:21:57.850Z,36
2016-09-16T16:22:14.224Z,36
2016-09-16T16:22:30.830Z,36
2016-09-16T16:22:47.569Z,36
2016-09-16T16:23:04.170Z,36
2016-09-16T16:23:20.527Z,36
2016-09-16T16:23:37.119Z,36
2016-09-16T16:23:53.491Z,36
2016-09-16T16:24:10.085Z,36
2016-09-16T16:24:26.700Z,36
2016-09-16T16:24:43.285Z,36
2016-09-16T16:24:59.795Z,36
2016-09-16T16:25:16.174Z,36
2016-09-16T16:25:32.768Z,35
2016-09-16T16:25:49.383Z,36
2016-09-16T16:26:05.527Z,36
2016-09-16T16:26:21.904Z,36
2016-09-16T16:26:38.491Z,35
2016-09-16T16:26:55.092Z,35
2016-09-16T16:27:11.484Z,36
2016-09-16T16:27:27.849Z,35
2016-09-16T16:27:44.232Z,35
2016-09-16T16:28:00.851Z,35
2016-09-16T16:28:17.222Z,35
2016-09-16T16:28:33.617Z,35
2016-09-16T16:28:49.986Z,35
2016-09-16T16:29:06.580Z,35
2016-09-16T16:29:22.714Z,36
2016-09-16T16:29:39.323Z,35
2016-09-16T16:29:55.921Z,35
2016-09-16T16:30:12.075Z,35
2016-09-16T16:30:28.218Z,35
2016-09-16T16:30:44.827Z,35
2016-09-16T16:31:01.449Z,35
2016-09-16T16:31:17.593Z,35
2016-09-16T16:31:33.873Z,35
2016-09-16T16:31:50.242Z,35
2016-09-16T16:32:06.991Z,35
2016-09-16T16:32:23.597Z,35
2016-09-16T16:32:40.106Z,35
2016-09-16T16:32:56.842Z,35
2016-09-16T16:33:13.436Z,35
2016-09-16T16:33:30.024Z,35
2016-09-16T16:33:46.394Z,35
2016-09-16T16:34:02.678Z,35
2016-09-16T16:34:19.059Z,35
2016-09-16T16:34:35.653Z,35
2016-09-16T16:34:52.021Z,35
2016-09-16T16:35:08.752Z,35
2016-09-16T16:35:25.351Z,35
2016-09-16T16:35:41.485Z,35
2016-09-16T16:35:58.080Z,35
2016-09-16T16:36:14.475Z,35
2016-09-16T16:36:31.086Z,35
2016-09-16T16:36:47.460Z,35
2016-09-16T16:37:04.045Z,36
2016-09-16T16:37:20.408Z,35
2016-09-16T16:37:37.026Z,36
2016-09-16T16:37:53.638Z,36
2016-09-16T16:38:10.155Z,36
2016-09-16T16:38:26.537Z,36
2016-09-16T16:38:42.922Z,36
2016-09-16T16:38:59.286Z,36
2016-09-16T16:39:15.879Z,36
2016-09-16T16:39:32.243Z,36
2016-09-16T16:39:48.610Z,36
2016-09-16T16:40:04.974Z,36
2016-09-16T16:40:21.567Z,36
2016-09-16T16:40:37.951Z,36
2016-09-16T16:40:54.560Z,36
2016-09-16T16:41:11.175Z,36
2016-09-16T16:41:27.544Z,36
2016-09-16T16:41:44.151Z,36
2016-09-16T16:42:00.765Z,36
2016-09-16T16:42:17.354Z,36
2016-09-16T16:42:33.860Z,36
2016-09-16T16:42:50.224Z,36
2016-09-16T16:43:06.599Z,36
2016-09-16T16:43:23.220Z,36
2016-09-16T16:43:39.816Z,36
2016-09-16T16:43:56.547Z,36
2016-09-16T16:44:12.689Z,36
2016-09-16T16:44:28.830Z,36
2016-09-16T16:44:45.198Z,36
2016-09-16T16:45:01.701Z,36
2016-09-16T16:45:18.081Z,36
2016-09-16T16:45:34.451Z,36
2016-09-16T16:45:50.599Z,36
2016-09-16T16:46:06.984Z,36
2016-09-16T16:46:23.587Z,36
2016-09-16T16:46:39.953Z,36
2016-09-16T16:46:56.469Z,36
2016-09-16T16:47:13.067Z,36
2016-09-16T16:47:29.203Z,36
2016-09-16T16:47:45.574Z,36
2016-09-16T16:48:01.931Z,36
2016-09-16T16:48:18.542Z,36
2016-09-16T16:48:35.270Z,36
2016-09-16T16:48:51.638Z,36
2016-09-16T16:49:08.233Z,36
2016-09-16T16:49:24.589Z,36
2016-09-16T16:49:41.202Z,36
2016-09-16T16:49:57.572Z,36
2016-09-16T16:50:14.177Z,36
2016-09-16T16:50:30.557Z,36
2016-09-16T16:50:47.061Z,36
2016-09-16T16:51:03.449Z,36
2016-09-16T16:51:20.061Z,36
2016-09-16T16:51:36.423Z,36
2016-09-16T16:51:53.017Z,36
2016-09-16T16:52:09.621Z,36
2016-09-16T16:52:26.354Z,36
2016-09-16T16:52:42.962Z,36
2016-09-16T16:52:59.552Z,36
2016-09-16T16:53:16.156Z,36
2016-09-16T16:53:32.532Z,36